Time,TemperatureF,DewpointF,PressureIn,WindDirection,WindDirectionDegrees,WindSpeedMPH,WindSpeedGustMPH,Humidity,HourlyPrecipIn,Conditions,Clouds,dailyrainin,SoftwareType,DateUTC
2017-02-22 00:01:00,64.1,62.0,29.90,ESE,122,0.0,0.0,91,0.00,,,0.00,weatherlink.com 1.10,2017-02-22 05:01:00,
2017-02-22 00:16:00,64.3,62.0,29.90,ESE,122,0.0,0.0,92,0.00,,,0.00,weatherlink.com 1.10,2017-02-22 05:16:00,
2017-02-22 00:31:00,64.4,62.0,29.90,ESE,122,0.0,0.0,92,0.00,,,0.00,weatherlink.com 1.10,2017-02-22 05:31:00,
2017-02-22 00:46:00,64.4,62.0,29.90,SSE,155,0.0,0.0,91,0.00,,,0.00,weatherlink.com 1.10,2017-02-22 05:46:00,
2017-02-22 01:01:00,64.5,62.0,29.89,SSE,155,0.0,0.0,92,0.00,,,0.00,weatherlink.com 1.10,2017-02-22 06:01:00,
2017-02-22 01:16:00,64.8,63.0,29.88,SSE,155,0.0,0.0,93,0.00,,,0.00,weatherlink.com 1.10,2017-02-22 06:16:00,
2017-02-22 01:31:00,66.1,64.0,29.87,SSE,159,0.0,0.0,92,0.00,,,0.00,weatherlink.com 1.10,2017-02-22 06:31:00,
2017-02-22 01:46:00,67.6,64.0,29.86,ESE,119,0.0,2.0,89,0.00,,,0.00,weatherlink.com 1.10,2017-02-22 06:46:00,
2017-02-22 02:02:00,69.4,65.0,29.85,SSW,205,2.0,7.0,85,0.00,,,0.00,weatherlink.com 1.10,2017-02-22 07:02:00,
2017-02-22 02:17:00,69.7,65.0,29.84,WSW,237,1.0,6.0,85,0.00,,,0.00,weatherlink.com 1.10,2017-02-22 07:17:00,
2017-02-22 02:32:00,69.9,65.0,29.84,SE,129,1.0,8.0,85,0.00,,,0.00,weatherlink.com 1.10,2017-02-22 07:32:00,
2017-02-22 02:47:00,69.9,65.0,29.84,South,176,0.0,3.0,85,0.00,,,0.00,weatherlink.com 1.10,2017-02-22 07:47:00,
2017-02-22 03:02:00,70.1,65.0,29.83,SSW,203,0.0,6.0,83,0.00,,,0.00,weatherlink.com 1.10,2017-02-22 08:02:00,
2017-02-22 03:17:00,70.0,65.0,29.83,South,183,2.0,5.0,83,0.00,,,0.00,weatherlink.com 1.10,2017-02-22 08:17:00,
2017-02-22 03:32:00,70.3,65.0,29.82,SSW,212,2.0,6.0,82,0.00,,,0.00,weatherlink.com 1.10,2017-02-22 08:32:00,
2017-02-22 03:47:00,70.5,65.0,29.82,ESE,119,2.0,10.0,82,0.00,,,0.00,weatherlink.com 1.10,2017-02-22 08:47:00,
2017-02-22 04:02:00,70.3,65.0,29.82,SSW,207,0.0,4.0,83,0.00,,,0.00,weatherlink.com 1.10,2017-02-22 09:02:00,
2017-02-22 04:17:00,70.3,65.0,29.82,South,188,1.0,6.0,83,0.00,,,0.00,weatherlink.com 1.10,2017-02-22 09:17:00,
2017-02-22 04:32:00,70.4,65.0,29.82,SSE,155,0.0,5.0,83,0.00,,,0.00,weatherlink.com 1.10,2017-02-22 09:32:00,
2017-02-22 04:47:00,70.6,65.0,29.81,ESE,105,2.0,4.0,81,0.00,,,0.00,weatherlink.com 1.10,2017-02-22 09:47:00,
2017-02-22 05:02:00,70.6,64.0,29.80,SSW,194,0.0,6.0,80,0.00,,,0.00,weatherlink.com 1.10,2017-02-22 10:02:00,
2017-02-22 05:17:00,70.6,64.0,29.80,SE,141,2.0,6.0,80,0.00,,,0.00,weatherlink.com 1.10,2017-02-22 10:17:00,
2017-02-22 05:32:00,70.6,64.0,29.80,SE,134,0.0,7.0,80,0.00,,,0.00,weatherlink.com 1.10,2017-02-22 10:32:00,
2017-02-22 05:47:00,70.6,65.0,29.81,SE,146,0.0,6.0,81,0.00,,,0.00,weatherlink.com 1.10,2017-02-22 10:47:00,
2017-02-22 06:02:00,70.7,64.0,29.81,ESE,122,1.0,6.0,80,0.00,,,0.00,weatherlink.com 1.10,2017-02-22 11:02:00,
2017-02-22 06:17:00,70.9,64.0,29.80,ESE,121,2.0,8.0,80,0.00,,,0.00,weatherlink.com 1.10,2017-02-22 11:17:00,
2017-02-22 06:32:00,71.0,64.0,29.80,SW,221,0.0,5.0,79,0.00,,,0.00,weatherlink.com 1.10,2017-02-22 11:32:00,
2017-02-22 06:47:00,71.1,64.0,29.80,East,98,4.0,6.0,79,0.00,,,0.00,weatherlink.com 1.10,2017-02-22 11:47:00,
2017-02-22 07:02:00,71.2,64.0,29.80,ESE,116,6.0,15.0,78,0.00,,,0.00,weatherlink.com 1.10,2017-02-22 12:02:00,
2017-02-22 07:17:00,69.9,65.0,29.80,SW,233,3.0,7.0,83,0.00,,,0.00,weatherlink.com 1.10,2017-02-22 12:17:00,
2017-02-22 07:32:00,69.6,65.0,29.81,SE,131,1.0,7.0,84,0.01,,,0.01,weatherlink.com 1.10,2017-02-22 12:32:00,
2017-02-22 07:47:00,70.3,65.0,29.80,SE,141,4.0,7.0,82,0.01,,,0.01,weatherlink.com 1.10,2017-02-22 12:47:00,
2017-02-22 08:02:00,70.9,64.0,29.80,SSE,148,0.0,10.0,80,0.01,,,0.01,weatherlink.com 1.10,2017-02-22 13:02:00,
2017-02-22 08:17:00,70.2,65.0,29.80,SW,231,0.0,5.0,84,0.05,,,0.05,weatherlink.com 1.10,2017-02-22 13:17:00,
2017-02-22 08:32:00,68.1,65.0,29.81,SSE,156,0.0,5.0,91,0.09,,,0.10,weatherlink.com 1.10,2017-02-22 13:32:00,
2017-02-22 08:47:00,68.0,65.0,29.81,SSW,207,1.0,5.0,91,0.09,,,0.10,weatherlink.com 1.10,2017-02-22 13:47:00,
2017-02-22 09:02:00,68.0,65.0,29.81,West,268,0.0,2.0,91,0.10,,,0.11,weatherlink.com 1.10,2017-02-22 14:02:00,
2017-02-22 09:17:00,67.3,65.0,29.81,ESE,120,0.0,2.0,92,0.05,,,0.11,weatherlink.com 1.10,2017-02-22 14:17:00,
2017-02-22 09:32:00,67.8,66.0,29.80,SSE,148,0.0,3.0,92,0.01,,,0.11,weatherlink.com 1.10,2017-02-22 14:32:00,
2017-02-22 09:47:00,67.8,66.0,29.80,SW,223,1.0,9.0,92,0.09,,,0.19,weatherlink.com 1.10,2017-02-22 14:47:00,
2017-02-22 10:02:00,67.3,66.0,29.80,SE,145,1.0,4.0,94,0.15,,,0.26,weatherlink.com 1.10,2017-02-22 15:02:00,
2017-02-22 10:17:00,67.0,65.0,29.79,SE,129,4.0,11.0,94,0.54,,,0.65,weatherlink.com 1.10,2017-02-22 15:17:00,
2017-02-22 10:32:00,67.4,66.0,29.79,South,170,0.0,5.0,94,0.59,,,0.70,weatherlink.com 1.10,2017-02-22 15:32:00,
2017-02-22 10:47:00,67.5,66.0,29.79,South,182,2.0,11.0,94,0.69,,,0.88,weatherlink.com 1.10,2017-02-22 15:47:00,
2017-02-22 11:02:00,68.0,66.0,29.77,ESE,107,1.0,4.0,94,0.61,,,0.88,weatherlink.com 1.10,2017-02-22 16:02:00,
2017-02-22 11:17:00,68.2,67.0,29.77,South,169,0.0,3.0,95,0.22,,,0.88,weatherlink.com 1.10,2017-02-22 16:17:00,
2017-02-22 11:32:00,67.8,66.0,29.77,WSW,254,4.0,10.0,94,0.42,,,1.12,weatherlink.com 1.10,2017-02-22 16:32:00,
2017-02-22 11:47:00,66.0,64.0,29.78,SW,222,5.0,13.0,94,0.52,,,1.40,weatherlink.com 1.10,2017-02-22 16:47:00,
2017-02-22 12:02:00,65.3,64.0,29.77,SW,233,4.0,13.0,94,0.87,,,1.75,weatherlink.com 1.10,2017-02-22 17:02:00,
2017-02-22 12:17:00,65.6,65.0,29.77,SSW,203,5.0,7.0,96,1.03,,,1.92,weatherlink.com 1.10,2017-02-22 17:17:00,
2017-02-22 12:33:00,66.0,65.0,29.76,ESE,117,1.0,5.0,96,0.92,,,2.07,weatherlink.com 1.10,2017-02-22 17:33:00,
2017-02-22 12:48:00,65.5,64.0,29.75,SSE,154,3.0,13.0,96,1.04,,,2.46,weatherlink.com 1.10,2017-02-22 17:48:00,